createdAt,value
2023-01-13T00:02:25.646Z,4.97
2023-01-13T00:05:31.237Z,4.92
2023-01-13T00:08:36.602Z,4.95
2023-01-13T00:11:42.601Z,4.93
2023-01-13T00:14:47.887Z,4.82
2023-01-13T00:17:53.123Z,4.83
2023-01-13T00:21:06.736Z,4.76
2023-01-13T00:24:12.146Z,4.40
2023-01-13T00:27:17.057Z,4.66
2023-01-13T00:30:22.419Z,4.57
2023-01-13T00:33:27.507Z,4.66
2023-01-13T00:36:33.161Z,4.64
2023-01-13T00:39:39.158Z,4.59
2023-01-13T00:43:23.548Z,4.66
2023-01-13T00:46:28.865Z,4.68
2023-01-13T00:49:34.328Z,4.57
2023-01-13T00:52:42.011Z,4.69
2023-01-13T00:55:47.728Z,4.81
2023-01-13T00:58:53.421Z,4.83
2023-01-13T01:01:58.926Z,4.76
2023-01-13T01:05:04.405Z,4.73
2023-01-13T01:08:10.153Z,4.75
2023-01-13T01:11:18.793Z,4.76
2023-01-13T01:14:24.255Z,4.75
2023-01-13T01:17:29.462Z,4.63
2023-01-13T01:20:35.147Z,4.72
2023-01-13T01:23:41.235Z,4.62
2023-01-13T01:26:46.780Z,4.51
2023-01-13T01:29:52.150Z,4.60
2023-01-13T01:32:57.690Z,4.65
2023-01-13T01:36:05.189Z,4.70
2023-01-13T01:39:10.947Z,4.55
2023-01-13T01:42:36.115Z,4.59
2023-01-13T01:45:41.435Z,4.57
2023-01-13T01:48:46.906Z,4.48
2023-01-13T01:52:12.269Z,4.53
2023-01-13T01:55:22.305Z,4.50
2023-01-13T01:58:38.026Z,4.53
2023-01-13T02:01:44.705Z,4.54
2023-01-13T02:04:56.408Z,4.49
2023-01-13T02:08:02.768Z,4.48
2023-01-13T02:11:28.713Z,4.35
2023-01-13T02:14:34.717Z,4.39
2023-01-13T02:17:48.824Z,4.53
2023-01-13T02:21:19.368Z,4.51
2023-01-13T02:25:07.486Z,4.46
2023-01-13T02:28:37.865Z,4.49
2023-01-13T02:31:48.056Z,4.44
2023-01-13T02:35:15.068Z,4.46
2023-01-13T02:38:29.247Z,4.51
2023-01-13T02:41:57.331Z,4.47
2023-01-13T02:45:35.706Z,4.28
2023-01-13T02:48:45.058Z,4.30
2023-01-13T02:51:53.618Z,4.25
2023-01-13T02:55:09.360Z,4.26
2023-01-13T02:58:20.442Z,4.29
2023-01-13T03:01:26.121Z,4.27
2023-01-13T03:04:50.563Z,4.25
2023-01-13T03:08:16.000Z,4.09
2023-01-13T03:11:22.193Z,4.24
2023-01-13T03:14:46.167Z,4.19
2023-01-13T03:18:28.201Z,4.02
2023-01-13T03:21:48.087Z,4.04
2023-01-13T03:25:18.674Z,4.09
2023-01-13T03:28:32.328Z,4.06
2023-01-13T03:31:47.390Z,4.10
2023-01-13T03:35:00.409Z,3.96
2023-01-13T03:38:12.899Z,3.95
2023-01-13T03:41:23.077Z,4.07
2023-01-13T03:44:39.095Z,3.60
2023-01-13T03:47:57.658Z,3.79
2023-01-13T03:51:08.741Z,3.89
2023-01-13T03:54:16.138Z,3.80
2023-01-13T03:57:27.063Z,3.76
2023-01-13T04:00:39.303Z,3.92
2023-01-13T04:03:50.364Z,3.72
2023-01-13T04:07:12.819Z,3.74
2023-01-13T04:10:26.882Z,3.82
2023-01-13T04:13:37.762Z,3.80
2023-01-13T04:16:43.082Z,3.68
2023-01-13T04:19:48.847Z,3.71
2023-01-13T04:22:54.336Z,3.65
2023-01-13T04:26:00.262Z,3.50
2023-01-13T04:29:05.762Z,3.54
2023-01-13T04:32:11.415Z,3.56
2023-01-13T04:35:17.525Z,3.61
2023-01-13T04:38:23.145Z,3.61
2023-01-13T04:41:28.802Z,3.63
2023-01-13T04:44:36.027Z,3.43
2023-01-13T04:47:44.617Z,3.33
2023-01-13T04:50:50.346Z,3.06
2023-01-13T04:53:55.699Z,3.24
2023-01-13T04:57:01.301Z,3.27
2023-01-13T05:00:08.198Z,3.45
2023-01-13T05:03:13.743Z,3.48
2023-01-13T05:06:19.271Z,3.25
2023-01-13T05:09:24.761Z,3.23
2023-01-13T05:12:49.018Z,3.06
2023-01-13T05:16:13.364Z,3.36
2023-01-13T05:19:18.832Z,3.49
2023-01-13T05:22:42.834Z,3.61
2023-01-13T05:25:48.853Z,3.63
2023-01-13T05:28:54.395Z,3.69
2023-01-13T05:32:03.088Z,3.33
2023-01-13T05:35:08.981Z,3.47
2023-01-13T05:38:16.104Z,3.54
2023-01-13T05:41:39.905Z,3.55
2023-01-13T05:44:45.688Z,3.53
2023-01-13T05:47:51.086Z,3.58
2023-01-13T05:50:56.952Z,3.45
2023-01-13T05:54:02.639Z,3.61
2023-01-13T05:57:08.704Z,3.63
2023-01-13T06:00:14.876Z,3.51
2023-01-13T06:03:20.596Z,3.55
2023-01-13T06:06:26.335Z,3.44
2023-01-13T06:09:31.706Z,3.39
2023-01-13T06:12:37.537Z,3.60
2023-01-13T06:15:43.212Z,3.69
2023-01-13T06:18:48.399Z,3.43
2023-01-13T06:21:58.133Z,3.59
2023-01-13T06:25:04.111Z,3.52
2023-01-13T06:28:09.731Z,3.60
2023-01-13T06:31:15.372Z,3.53
2023-01-13T06:34:21.385Z,3.45
2023-01-13T06:37:28.817Z,3.54
2023-01-13T06:40:35.468Z,3.37
2023-01-13T06:43:41.727Z,3.50
2023-01-13T06:46:48.049Z,3.14
2023-01-13T06:49:53.883Z,2.88
2023-01-13T06:52:59.617Z,3.17
2023-01-13T06:56:05.193Z,3.24
2023-01-13T06:59:10.716Z,3.36
2023-01-13T07:02:16.674Z,3.08
2023-01-13T07:05:22.846Z,2.90
2023-01-13T07:08:27.791Z,2.77
2023-01-13T07:11:33.376Z,2.83
2023-01-13T07:14:57.873Z,2.74
2023-01-13T07:18:03.966Z,2.70
2023-01-13T07:21:13.492Z,2.66
2023-01-13T07:24:19.876Z,2.84
2023-01-13T07:27:26.065Z,3.12
2023-01-13T07:30:31.669Z,3.26
2023-01-13T07:33:37.724Z,3.34
2023-01-13T07:36:43.649Z,3.09
2023-01-13T07:39:50.650Z,3.19
2023-01-13T07:43:14.202Z,3.39
2023-01-13T07:46:19.823Z,3.56
2023-01-13T07:49:25.237Z,3.73
2023-01-13T07:52:30.668Z,3.75
2023-01-13T07:55:42.077Z,3.78
2023-01-13T07:58:51.084Z,3.41
2023-01-13T08:01:56.650Z,3.16
2023-01-13T08:05:02.313Z,3.19
2023-01-13T08:08:08.311Z,3.32
2023-01-13T08:11:13.907Z,3.56
2023-01-13T08:14:19.598Z,3.40
2023-01-13T08:17:25.463Z,3.38
2023-01-13T08:20:33.086Z,3.36
2023-01-13T08:23:39.807Z,3.74
2023-01-13T08:26:45.974Z,3.87
2023-01-13T08:29:51.589Z,3.82
2023-01-13T08:32:57.340Z,4.14
2023-01-13T08:36:05.578Z,4.07
2023-01-13T08:39:11.262Z,4.20
2023-01-13T08:42:16.806Z,4.32
2023-01-13T08:45:22.346Z,4.28
2023-01-13T08:48:31.367Z,4.48
2023-01-13T08:51:36.942Z,4.68
2023-01-13T08:54:42.452Z,4.86
2023-01-13T08:57:48.009Z,4.96
2023-01-13T09:00:54.239Z,4.92
2023-01-13T09:04:00.089Z,5.04
2023-01-13T09:07:05.672Z,5.19
2023-01-13T09:10:11.468Z,5.34
2023-01-13T09:13:17.580Z,5.43
2023-01-13T09:16:23.327Z,5.58
2023-01-13T09:19:29.459Z,5.75
2023-01-13T09:22:37.832Z,5.89
2023-01-13T09:25:43.310Z,6.05
2023-01-13T09:28:49.015Z,5.88
2023-01-13T09:31:55.134Z,5.84
2023-01-13T09:35:00.885Z,6.01
2023-01-13T09:38:07.407Z,6.06
2023-01-13T09:41:38.455Z,6.31
2023-01-13T09:45:06.274Z,6.38
2023-01-13T09:48:32.924Z,6.45
2023-01-13T09:51:51.756Z,6.51
2023-01-13T09:55:20.028Z,6.44
2023-01-13T09:58:25.796Z,6.48
2023-01-13T10:01:46.423Z,6.51
2023-01-13T10:05:23.224Z,6.46
2023-01-13T10:08:45.008Z,6.48
2023-01-13T10:12:11.542Z,6.54
2023-01-13T10:15:23.436Z,6.50
2023-01-13T10:18:37.453Z,6.38
2023-01-13T10:22:09.362Z,6.51
2023-01-13T10:25:42.180Z,6.56
2023-01-13T10:28:56.226Z,6.58
2023-01-13T10:32:01.900Z,6.56
2023-01-13T10:35:08.980Z,6.68
2023-01-13T10:38:21.927Z,6.67
2023-01-13T10:41:28.422Z,6.64
2023-01-13T10:44:51.173Z,6.70
2023-01-13T10:48:08.267Z,6.64
2023-01-13T10:51:44.545Z,6.61
2023-01-13T10:54:54.455Z,6.65
2023-01-13T10:58:19.734Z,6.68
2023-01-13T11:01:27.682Z,6.70
2023-01-13T11:04:37.774Z,6.78
2023-01-13T11:07:54.442Z,6.85
2023-01-13T11:11:00.213Z,6.75
2023-01-13T11:14:31.674Z,6.77
2023-01-13T11:17:46.614Z,6.75
2023-01-13T11:20:55.679Z,6.88
2023-01-13T11:24:19.261Z,6.90
2023-01-13T11:27:44.781Z,6.91
2023-01-13T11:31:24.813Z,7.07
2023-01-13T11:34:37.547Z,7.04
2023-01-13T11:37:50.546Z,7.15
2023-01-13T11:41:13.240Z,7.09
2023-01-13T11:44:25.866Z,7.09
2023-01-13T11:47:32.926Z,7.24
2023-01-13T11:50:43.454Z,7.28
2023-01-13T11:54:14.951Z,7.21
2023-01-13T11:57:37.781Z,7.23
2023-01-13T12:00:57.999Z,7.05
2023-01-13T12:04:33.488Z,7.29
2023-01-13T12:08:12.807Z,7.31
2023-01-13T12:11:32.868Z,7.38
2023-01-13T12:15:07.266Z,7.33
2023-01-13T12:18:30.708Z,7.34
2023-01-13T12:21:57.889Z,7.23
2023-01-13T12:25:13.772Z,7.46
2023-01-13T12:28:43.725Z,7.52
2023-01-13T12:31:51.577Z,7.49
2023-01-13T12:35:15.722Z,7.49
2023-01-13T12:38:56.916Z,7.60
2023-01-13T12:42:52.550Z,7.70
2023-01-13T12:46:19.285Z,7.64
2023-01-13T12:49:31.170Z,7.61
2023-01-13T12:52:45.814Z,7.62
2023-01-13T12:55:53.358Z,7.63
2023-01-13T12:59:21.918Z,7.73
2023-01-13T13:02:29.147Z,7.72
2023-01-13T13:05:44.774Z,7.80
2023-01-13T13:09:03.709Z,7.68
2023-01-13T13:12:49.590Z,7.85
2023-01-13T13:16:26.472Z,7.92
2023-01-13T13:19:31.548Z,7.83
2023-01-13T13:22:43.128Z,7.84
2023-01-13T13:26:13.955Z,7.89
2023-01-13T13:29:28.029Z,7.93
2023-01-13T13:32:39.751Z,7.86
2023-01-13T13:36:15.503Z,8.09
2023-01-13T13:39:45.326Z,8.10
2023-01-13T13:43:16.171Z,7.96
2023-01-13T13:46:48.047Z,7.98
2023-01-13T13:49:57.217Z,8.10
2023-01-13T13:53:06.439Z,8.42
2023-01-13T13:56:22.239Z,8.65
2023-01-13T13:59:33.911Z,8.53
2023-01-13T14:02:39.410Z,8.55
2023-01-13T14:06:04.684Z,8.65
2023-01-13T14:09:17.958Z,8.74
2023-01-13T14:12:26.199Z,8.54
2023-01-13T14:15:39.252Z,8.58
2023-01-13T14:18:48.845Z,8.55
2023-01-13T14:21:54.602Z,8.57
2023-01-13T14:25:02.113Z,8.46
2023-01-13T14:28:13.271Z,8.39
2023-01-13T14:31:19.845Z,8.38
2023-01-13T14:34:31.501Z,8.30
2023-01-13T14:37:42.016Z,8.31
2023-01-13T14:40:47.534Z,8.22
2023-01-13T14:43:57.983Z,8.18
2023-01-13T14:47:20.102Z,8.25
2023-01-13T14:50:31.748Z,8.18
2023-01-13T14:53:37.201Z,8.20
2023-01-13T14:56:55.369Z,8.13
2023-01-13T15:00:16.014Z,8.07
2023-01-13T15:03:21.994Z,8.02
2023-01-13T15:06:27.308Z,7.92
2023-01-13T15:09:55.299Z,7.89
2023-01-13T15:13:04.828Z,7.77
2023-01-13T15:16:25.297Z,7.72
2023-01-13T15:19:31.531Z,7.72
2023-01-13T15:22:37.292Z,7.68
2023-01-13T15:25:44.331Z,7.57
2023-01-13T15:28:50.733Z,7.52
2023-01-13T15:31:56.019Z,7.43
2023-01-13T15:35:01.067Z,7.37
2023-01-13T15:38:12.493Z,7.34
2023-01-13T15:41:17.704Z,7.18
2023-01-13T15:44:41.751Z,7.15
2023-01-13T15:47:48.389Z,7.06
2023-01-13T15:50:54.013Z,7.07
2023-01-13T15:54:02.841Z,7.04
2023-01-13T15:57:38.271Z,6.97
2023-01-13T16:00:43.718Z,6.83
2023-01-13T16:03:49.099Z,6.75
2023-01-13T16:06:55.636Z,6.66
2023-01-13T16:10:02.040Z,6.67
2023-01-13T16:13:07.553Z,6.65
2023-01-13T16:16:39.032Z,6.47
2023-01-13T16:19:45.353Z,6.40
2023-01-13T16:22:50.496Z,6.36
2023-01-13T16:25:55.860Z,6.36
2023-01-13T16:29:01.204Z,6.31
2023-01-13T16:32:06.504Z,6.33
2023-01-13T16:35:11.446Z,6.29
2023-01-13T16:38:17.830Z,6.14
2023-01-13T16:41:25.212Z,6.15
2023-01-13T16:44:30.397Z,6.10
2023-01-13T16:47:36.015Z,5.91
2023-01-13T16:50:42.706Z,5.95
2023-01-13T16:53:48.684Z,5.96
2023-01-13T16:56:54.194Z,5.91
2023-01-13T16:59:59.369Z,5.96
2023-01-13T17:03:05.397Z,5.95
2023-01-13T17:06:12.403Z,5.91
2023-01-13T17:09:23.666Z,5.85
2023-01-13T17:12:28.731Z,5.88
2023-01-13T17:15:34.523Z,5.83
2023-01-13T17:18:40.451Z,5.76
2023-01-13T17:21:47.316Z,5.77
2023-01-13T17:24:52.656Z,5.81
2023-01-13T17:27:58.205Z,5.64
2023-01-13T17:31:03.659Z,5.54
2023-01-13T17:34:11.000Z,5.52
2023-01-13T17:37:16.511Z,5.49
2023-01-13T17:40:21.925Z,5.37
2023-01-13T17:43:27.462Z,5.47
2023-01-13T17:46:32.925Z,5.39
2023-01-13T17:49:38.587Z,5.32
2023-01-13T17:52:44.073Z,5.36
2023-01-13T17:55:51.908Z,5.25
2023-01-13T17:58:58.884Z,5.25
2023-01-13T18:02:05.148Z,5.23
2023-01-13T18:05:10.300Z,5.21
2023-01-13T18:08:16.046Z,4.52
2023-01-13T18:11:22.889Z,4.88
2023-01-13T18:14:28.815Z,4.95
2023-01-13T18:17:34.739Z,4.98
2023-01-13T18:20:58.627Z,4.75
2023-01-13T18:24:23.122Z,4.66
2023-01-13T18:27:35.508Z,4.85
2023-01-13T18:30:41.299Z,5.08
2023-01-13T18:33:47.185Z,5.15
2023-01-13T18:36:52.595Z,5.20
2023-01-13T18:39:58.779Z,5.11
2023-01-13T18:43:04.439Z,5.13
2023-01-13T18:46:09.829Z,5.19
2023-01-13T18:49:15.380Z,5.11
2023-01-13T18:52:24.180Z,4.96
2023-01-13T18:55:29.855Z,4.52
2023-01-13T18:58:35.515Z,4.67
2023-01-13T19:01:42.005Z,4.77
2023-01-13T19:04:48.033Z,4.77
2023-01-13T19:07:53.843Z,4.74
2023-01-13T19:11:07.698Z,4.73
2023-01-13T19:14:34.358Z,4.67
2023-01-13T19:17:40.012Z,4.76
2023-01-13T19:20:45.773Z,4.73
2023-01-13T19:23:54.047Z,4.66
2023-01-13T19:26:59.333Z,4.68
2023-01-13T19:30:06.479Z,4.64
2023-01-13T19:33:11.652Z,4.61
2023-01-13T19:36:17.012Z,4.63
2023-01-13T19:39:22.700Z,4.66
2023-01-13T19:42:46.779Z,4.43
2023-01-13T19:45:52.783Z,4.46
2023-01-13T19:48:58.143Z,4.55
2023-01-13T19:52:03.665Z,4.55
2023-01-13T19:55:12.028Z,4.50
2023-01-13T19:58:20.933Z,4.48
2023-01-13T20:01:35.413Z,4.33
2023-01-13T20:04:44.846Z,4.29
2023-01-13T20:07:51.260Z,4.41
2023-01-13T20:11:16.557Z,4.45
2023-01-13T20:14:22.161Z,4.35
2023-01-13T20:17:28.218Z,4.26
2023-01-13T20:20:34.547Z,4.34
2023-01-13T20:23:40.418Z,4.11
2023-01-13T20:26:48.705Z,4.08
2023-01-13T20:29:55.153Z,4.09
2023-01-13T20:33:02.331Z,4.02
2023-01-13T20:36:18.180Z,4.11
2023-01-13T20:39:30.776Z,4.00
2023-01-13T20:42:46.724Z,4.07
2023-01-13T20:45:53.982Z,3.89
2023-01-13T20:49:01.329Z,3.96
2023-01-13T20:52:12.343Z,3.87
2023-01-13T20:55:19.017Z,3.90
2023-01-13T20:58:26.799Z,3.98
2023-01-13T21:01:34.808Z,3.81
2023-01-13T21:04:48.086Z,3.84
2023-01-13T21:07:55.335Z,3.78
2023-01-13T21:11:12.169Z,3.75
2023-01-13T21:14:39.230Z,3.70
2023-01-13T21:18:05.973Z,3.67
2023-01-13T21:21:13.197Z,3.58
2023-01-13T21:24:19.903Z,3.58
2023-01-13T21:27:26.409Z,3.48
2023-01-13T21:30:33.738Z,3.42
2023-01-13T21:33:39.232Z,3.34
2023-01-13T21:36:44.772Z,3.38
2023-01-13T21:39:50.349Z,3.38
2023-01-13T21:43:19.260Z,3.45
2023-01-13T21:46:43.539Z,3.41
2023-01-13T21:49:49.596Z,3.39
2023-01-13T21:52:56.451Z,3.43
2023-01-13T21:56:01.903Z,3.42
2023-01-13T21:59:07.466Z,3.35
2023-01-13T22:02:29.391Z,3.27
2023-01-13T22:05:35.204Z,3.22
2023-01-13T22:08:40.512Z,3.20
2023-01-13T22:11:46.039Z,3.04
2023-01-13T22:14:52.507Z,3.04
2023-01-13T22:17:59.737Z,3.07
2023-01-13T22:21:06.262Z,3.09
2023-01-13T22:24:12.206Z,3.06
2023-01-13T22:27:26.163Z,2.98
2023-01-13T22:30:32.796Z,3.08
2023-01-13T22:33:39.319Z,3.14
2023-01-13T22:36:44.705Z,3.26
2023-01-13T22:39:50.674Z,3.26
2023-01-13T22:42:56.383Z,3.28
2023-01-13T22:46:08.059Z,3.25
2023-01-13T22:49:15.837Z,3.11
2023-01-13T22:52:22.964Z,3.12
2023-01-13T22:55:28.889Z,3.07
2023-01-13T22:58:34.859Z,3.24
2023-01-13T23:01:42.392Z,3.22
2023-01-13T23:04:48.279Z,3.11
2023-01-13T23:07:54.118Z,3.25
2023-01-13T23:11:16.244Z,3.18
2023-01-13T23:14:21.566Z,3.23
2023-01-13T23:17:27.210Z,3.22
2023-01-13T23:20:33.566Z,3.18
2023-01-13T23:23:39.986Z,3.19
2023-01-13T23:26:45.381Z,3.07
2023-01-13T23:29:50.936Z,3.18
2023-01-13T23:32:56.318Z,2.96
2023-01-13T23:36:05.519Z,2.90
2023-01-13T23:39:10.921Z,2.79
2023-01-13T23:42:16.425Z,2.60
2023-01-13T23:45:21.549Z,2.64
2023-01-13T23:48:26.920Z,2.67
2023-01-13T23:51:32.754Z,2.36
2023-01-13T23:54:38.227Z,2.63
2023-01-13T23:57:44.385Z,2.68
